Time;durP1;ratioP1;P1;durP2;ratioP2;P2;SDS_P1;SDS_P2;PMS_P1;PMS_P2;Temp;Humidity;BMP_temperature;BMP_pressure;BME280_temperature;BME280_humidity;BME280_pressure;Samples;Min_cycle;Max_cycle;Signal;HPM_P1;HPM_P2
2023/02/19 00:00:52;;;;;;;4.97;3.30;;;;;;;3.02;100.00;100340.64;5117575;55;1136766;-68
2023/02/19 00:06:05;;;;;;;10.23;4.73;;;;;;;3.00;100.00;100349.01;5169335;55;1137420;-68
2023/02/19 00:11:14;;;;;;;7.13;3.43;;;;;;;2.99;100.00;100352.54;5133978;56;1138831;-68
2023/02/19 00:16:27;;;;;;;7.25;3.02;;;;;;;2.98;100.00;100353.45;5132161;55;1239581;-67
2023/02/19 00:21:33;;;;;;;5.22;2.14;;;;;;;2.98;100.00;100352.16;5133694;55;1238389;-66
2023/02/19 00:26:41;;;;;;;8.93;2.67;;;;;;;2.97;100.00;100358.30;5154508;55;1136639;-69
2023/02/19 00:31:47;;;;;;;4.13;2.47;;;;;;;2.96;100.00;100352.69;5084503;54;1136824;-67
2023/02/19 00:36:53;;;;;;;11.53;3.40;;;;;;;2.92;100.00;100335.92;5067658;55;1251759;-66
2023/02/19 00:41:59;;;;;;;6.03;3.13;;;;;;;2.95;100.00;100342.30;5099172;55;1139644;-69
2023/02/19 00:47:05;;;;;;;10.03;3.00;;;;;;;2.91;100.00;100333.77;5096287;55;1184723;-69
2023/02/19 00:52:11;;;;;;;13.97;3.57;;;;;;;2.87;100.00;100326.18;5099175;55;1254393;-67
2023/02/19 00:57:17;;;;;;;11.10;3.00;;;;;;;2.83;100.00;100326.32;5114644;55;1256070;-67
2023/02/19 01:02:23;;;;;;;6.53;2.10;;;;;;;2.82;100.00;100339.45;5088187;55;1254360;-71
2023/02/19 01:07:29;;;;;;;6.70;2.70;;;;;;;2.80;100.00;100333.45;5083941;55;1136971;-73
2023/02/19 01:12:35;;;;;;;12.50;2.43;;;;;;;2.79;100.00;100331.30;5081033;55;1136893;-72
2023/02/19 01:17:41;;;;;;;8.15;2.75;;;;;;;2.78;100.00;100330.91;4979814;57;1139816;-71
2023/02/19 01:22:46;;;;;;;8.73;3.00;;;;;;;2.78;100.00;100336.59;4911927;57;1238455;-75
2023/02/19 01:27:52;;;;;;;10.17;2.30;;;;;;;2.76;100.00;100328.83;4927522;57;1137065;-69
2023/02/19 01:32:58;;;;;;;9.53;2.60;;;;;;;2.75;100.00;100316.69;4956832;57;1138843;-72
2023/02/19 01:38:06;;;;;;;14.27;3.47;;;;;;;2.75;100.00;100318.48;4966704;58;1136898;-71
2023/02/19 01:43:16;;;;;;;6.23;1.90;;;;;;;2.74;100.00;100318.10;5080439;55;1138842;-75
2023/02/19 01:48:32;;;;;;;6.73;2.87;;;;;;;2.72;100.00;100320.78;5001963;57;1136745;-70
2023/02/19 01:53:43;;;;;;;8.53;2.77;;;;;;;2.70;100.00;100320.01;4982750;58;1136817;-71
2023/02/19 01:58:49;;;;;;;5.78;2.22;;;;;;;2.72;100.00;100312.10;4982266;58;1136955;-74
2023/02/19 02:03:55;;;;;;;15.80;3.63;;;;;;;2.72;100.00;100293.83;5002040;58;1136641;-71
2023/02/19 02:14:33;;;;;;;7.20;3.40;;;;;;;2.71;100.00;100286.91;5181019;55;1138767;-76
2023/02/19 02:20:16;;;;;;;11.22;4.28;;;;;;;2.67;100.00;100291.89;5221667;54;1136790;-71
2023/02/19 02:25:41;;;;;;;14.00;4.20;;;;;;;2.66;100.00;100274.53;5243866;54;1248851;-70
2023/02/19 02:30:58;;;;;;;8.57;3.67;;;;;;;2.65;100.00;100266.31;5225549;54;1139203;-70
2023/02/19 02:36:14;;;;;;;9.33;2.97;;;;;;;2.64;100.00;100261.55;5186680;54;1136864;-71
2023/02/19 02:41:21;;;;;;;13.57;4.40;;;;;;;2.63;100.00;100254.63;5114456;55;1136819;-70
2023/02/19 02:46:34;;;;;;;7.80;3.60;;;;;;;2.63;100.00;100241.58;5115660;55;1138852;-67
2023/02/19 02:51:47;;;;;;;15.80;3.47;;;;;;;2.62;100.00;100232.52;5181356;55;1136622;-69
2023/02/19 02:56:59;;;;;;;9.80;2.97;;;;;;;2.61;100.00;100238.20;5181004;55;1138785;-73
2023/02/19 03:02:17;;;;;;;11.17;3.33;;;;;;;2.57;100.00;100237.98;5201453;55;1136861;-74
2023/02/19 03:07:27;;;;;;;14.00;3.73;;;;;;;2.52;100.00;100231.28;5181093;55;1138786;-70
2023/02/19 03:34:35;;;;;;;7.23;2.53;;;;;;;2.47;100.00;100217.14;4911374;58;1136911;-71
2023/02/19 03:39:45;;;;;;;18.27;3.93;;;;;;;2.52;100.00;100216.47;5118277;56;1136936;-73
2023/02/19 03:45:03;;;;;;;11.10;3.40;;;;;;;2.56;100.00;100217.17;5115920;56;1138805;-67
2023/02/19 03:50:32;;;;;;;9.10;2.83;;;;;;;2.52;100.00;100206.48;5176882;56;1139024;-72
2023/02/19 03:56:00;;;;;;;11.67;3.00;;;;;;;2.59;100.00;100211.34;5158030;56;1136805;-68
2023/02/19 04:01:16;;;;;;;13.93;3.40;;;;;;;2.63;100.00;100208.94;4996054;57;1139037;-73
2023/02/19 04:06:24;;;;;;;;;;;;;;;2.67;100.00;100205.73;5019205;57;1138806;-70
2023/02/19 04:11:32;;;;;;;14.03;2.70;;;;;;;2.67;100.00;100203.96;5011513;57;974042;-75
2023/02/19 04:16:44;;;;;;;9.55;2.40;;;;;;;2.67;100.00;100207.88;4992875;57;1136715;-73
2023/02/19 04:21:53;;;;;;;10.45;3.02;;;;;;;2.67;100.00;100202.66;4992574;57;1136713;-74
2023/02/19 04:26:59;;;;;;;7.70;3.23;;;;;;;2.70;100.00;100207.73;5012021;57;1139075;-68
2023/02/19 04:32:05;;;;;;;16.10;3.90;;;;;;;2.68;100.00;100217.86;4992604;58;1136878;-68
2023/02/19 04:37:11;;;;;;;7.73;3.10;;;;;;;2.67;100.00;100227.46;4989883;56;1138979;-71
2023/02/19 04:42:17;;;;;;;13.83;4.03;;;;;;;2.69;100.00;100226.08;4899279;57;1136837;-73
2023/02/19 04:47:23;;;;;;;6.87;2.90;;;;;;;2.65;100.00;100245.42;4982237;58;1138903;-73
2023/02/19 04:52:28;;;;;;;12.07;3.77;;;;;;;2.63;100.00;100245.49;4992197;57;1136676;-71
2023/02/19 04:57:35;;;;;;;6.27;2.87;;;;;;;2.57;100.00;100230.61;4908218;58;1138903;-73
2023/02/19 05:02:40;;;;;;;12.40;3.50;;;;;;;2.55;100.00;100234.59;4926724;58;1136883;-72
2023/02/19 05:07:46;;;;;;;5.70;3.47;;;;;;;2.51;100.00;100234.81;4908124;58;1138837;-73
2023/02/19 05:12:55;;;;;;;10.73;3.43;;;;;;;2.46;100.00;100239.80;4908481;59;1136780;-70
2023/02/19 05:18:01;;;;;;;7.83;3.10;;;;;;;2.43;100.00;100253.48;5002020;57;1138826;-70
2023/02/19 05:23:07;;;;;;;11.20;4.00;;;;;;;2.41;100.00;100256.16;5035971;57;1136668;-74
2023/02/19 05:28:19;;;;;;;8.90;4.27;;;;;;;2.41;100.00;100262.68;4982536;58;1138860;-74
2023/02/19 05:33:26;;;;;;;5.92;3.05;;;;;;;2.39;100.00;100256.69;5055820;57;1136943;-71
2023/02/19 05:38:32;;;;;;;6.43;3.20;;;;;;;2.35;100.00;100248.61;4941236;58;1136703;-69
2023/02/19 05:43:39;;;;;;;5.77;3.27;;;;;;;2.32;100.00;100243.98;4950644;58;1136892;-72
2023/02/19 05:48:45;;;;;;;8.08;3.37;;;;;;;2.32;100.00;100250.52;4969985;58;1136922;-72
2023/02/19 05:53:52;;;;;;;15.08;4.30;;;;;;;2.31;100.00;100243.60;4950446;58;1136853;-75
2023/02/19 05:58:59;;;;;;;4.57;3.00;;;;;;;2.30;100.00;100244.52;4982081;58;1138965;-68
2023/02/19 06:04:04;;;;;;;16.20;2.83;;;;;;;2.31;100.00;100241.84;5001892;58;1136926;-72
2023/02/19 06:09:11;;;;;;;6.22;2.83;;;;;;;2.30;100.00;100240.14;5035720;57;1138989;-70
2023/02/19 06:14:16;;;;;;;7.57;3.40;;;;;;;2.30;100.00;100244.06;4949623;58;1136976;-71
2023/02/19 06:19:24;;;;;;;7.77;2.80;;;;;;;2.28;100.00;100246.38;4969619;57;1136764;-71
2023/02/19 06:24:30;;;;;;;11.03;4.00;;;;;;;2.27;100.00;100245.53;4950526;58;1136839;-73
2023/02/19 06:29:40;;;;;;;9.38;3.10;;;;;;;2.26;100.00;100251.67;4962890;58;1139017;-73
2023/02/19 06:34:42;;;;;;;13.13;3.62;;;;;;;2.28;100.00;100259.43;5054898;56;1136941;-77
2023/02/19 06:39:49;;;;;;;9.70;3.35;;;;;;;2.28;100.00;100281.61;4927557;57;1138938;-68
2023/02/19 06:44:56;;;;;;;10.43;4.10;;;;;;;2.28;100.00;100281.61;5175923;56;1137268;-72
2023/02/19 06:50:01;;;;;;;14.93;5.20;;;;;;;2.29;100.00;100285.91;5188701;54;1138920;-74
2023/02/19 06:55:09;;;;;;;14.33;6.33;;;;;;;2.31;100.00;100291.41;5168051;55;1139284;-73
2023/02/19 07:00:15;;;;;;;13.67;6.40;;;;;;;2.33;100.00;100288.28;5168498;55;1139078;-74
2023/02/19 07:05:21;;;;;;;19.57;8.23;;;;;;;2.37;100.00;100293.75;5187600;55;1138948;-68
2023/02/19 07:10:27;;;;;;;18.00;5.90;;;;;;;2.38;100.00;100295.44;5168205;55;1138724;-72
2023/02/19 07:15:32;;;;;;;9.70;4.67;;;;;;;2.39;100.00;100297.14;5168271;55;1138973;-73
2023/02/19 07:20:38;;;;;;;15.67;5.07;;;;;;;2.39;100.00;100305.42;5162220;54;1140339;-69
2023/02/19 07:25:44;;;;;;;17.23;6.00;;;;;;;2.42;100.00;100301.37;5015739;57;1148476;-69
2023/02/19 07:30:50;;;;;;;7.87;4.20;;;;;;;2.44;100.00;100303.45;4996374;57;1138861;-75
2023/02/19 07:35:55;;;;;;;10.37;5.27;;;;;;;2.47;100.00;100301.52;4994998;56;1136978;-69
2023/02/19 07:41:04;;;;;;;13.20;6.10;;;;;;;2.50;100.00;100297.07;4989467;57;1139020;-73
2023/02/19 07:46:13;;;;;;;13.95;5.67;;;;;;;2.55;100.00;100299.86;4942680;56;1138915;-66
2023/02/19 07:51:21;;;;;;;13.13;5.23;;;;;;;2.59;100.00;100307.94;4941494;57;1138903;-72
2023/02/19 07:56:27;;;;;;;7.97;4.33;;;;;;;2.67;100.00;100305.79;5005925;57;1138878;-70
2023/02/19 08:06:56;;;;;;;9.75;5.30;;;;;;;2.85;100.00;100314.50;4975630;56;1138838;-74
2023/02/19 08:17:26;;;;;;;18.35;6.22;;;;;;;3.07;100.00;100326.86;4996349;56;1138934;-71
2023/02/19 08:22:31;;;;;;;18.43;6.63;;;;;;;3.16;100.00;100338.64;4983655;56;1138843;-71
2023/02/19 08:27:37;;;;;;;8.33;4.57;;;;;;;3.20;100.00;100339.34;5050024;56;1138858;-70
2023/02/19 08:32:43;;;;;;;23.90;6.20;;;;;;;3.24;100.00;100344.78;5089793;57;1136795;-70
2023/02/19 08:37:49;;;;;;;16.60;5.10;;;;;;;3.25;100.00;100360.38;5059646;57;1138941;-72
2023/02/19 08:42:54;;;;;;;11.23;4.57;;;;;;;3.26;100.00;100362.08;5071476;57;1138679;-78
2023/02/19 08:48:01;;;;;;;21.23;4.67;;;;;;;3.29;100.00;100370.23;5041655;56;1139053;-72
2023/02/19 08:53:07;;;;;;;13.43;5.85;;;;;;;3.29;100.00;100385.45;4988021;57;1139016;-76
2023/02/19 08:58:13;;;;;;;17.20;7.07;;;;;;;3.29;100.00;100404.21;4988458;57;1138974;-71
2023/02/19 09:03:19;;;;;;;46.97;24.27;;;;;;;3.31;100.00;100399.75;5007941;57;1138760;-72
2023/02/19 09:08:25;;;;;;;50.67;23.83;;;;;;;3.40;100.00;100402.75;5011957;57;1140975;-72
2023/02/19 09:13:31;;;;;;;47.90;19.90;;;;;;;3.60;100.00;100404.83;5043501;56;1140868;-72
2023/02/19 09:18:38;;;;;;;38.24;19.98;;;;;;;3.73;100.00;100411.13;5084567;56;1141011;-69
2023/02/19 09:23:44;;;;;;;18.27;9.30;;;;;;;3.82;100.00;100424.56;5040084;57;1141007;-70
2023/02/19 09:28:50;;;;;;;15.35;6.80;;;;;;;3.86;100.00;100425.26;4940717;57;1138861;-71
2023/02/19 09:33:56;;;;;;;23.40;11.53;;;;;;;3.88;100.00;100435.19;4941181;57;1138958;-69
2023/02/19 09:39:03;;;;;;;6.43;2.73;;;;;;;3.97;100.00;100448.28;4866193;57;1140917;-69
2023/02/19 09:44:10;;;;;;;11.93;2.73;;;;;;;3.90;100.00;100452.97;4954405;57;1136719;-68
2023/02/19 09:49:38;;;;;;;19.17;4.63;;;;;;;3.97;100.00;100460.05;4982632;57;1138930;-70
2023/02/19 09:54:45;;;;;;;21.13;6.67;;;;;;;4.14;100.00;100466.08;4982166;58;1138955;-68
2023/02/19 10:00:07;;;;;;;15.75;11.25;;;;;;;4.30;100.00;100473.13;4995405;57;1138870;-68
2023/02/19 10:05:17;;;;;;;10.87;3.97;;;;;;;4.39;100.00;100481.83;4872602;58;1140986;-71
2023/02/19 10:10:30;;;;;;;11.07;6.50;;;;;;;4.50;100.00;100480.33;4903184;57;1138820;-70
2023/02/19 10:15:40;;;;;;;34.67;16.57;;;;;;;4.47;100.00;100490.12;4903530;57;1138807;-68
2023/02/19 10:20:48;;;;;;;12.23;5.87;;;;;;;4.41;100.00;100507.02;4944880;58;1141102;-69
2023/02/19 10:25:57;;;;;;;17.70;5.67;;;;;;;4.42;100.00;100511.33;4941682;56;1139007;-68
2023/02/19 10:31:07;;;;;;;22.63;7.70;;;;;;;4.36;100.00;100522.57;4925918;57;1138810;-71
2023/02/19 10:36:35;;;;;;;17.57;8.30;;;;;;;4.38;100.00;100528.58;5031578;57;1139224;-69
2023/02/19 10:41:42;;;;;;;9.27;5.20;;;;;;;4.52;100.00;100532.17;5011914;57;1138885;-69
2023/02/19 10:46:54;;;;;;;7.72;2.42;;;;;;;4.57;100.00;100531.94;5005960;57;1136766;-69
2023/02/19 10:52:21;;;;;;;7.95;2.58;;;;;;;4.72;100.00;100537.68;5016753;57;1136859;-68
2023/02/19 10:57:31;;;;;;;8.45;2.05;;;;;;;4.82;100.00;100540.17;4976667;57;1136812;-69
2023/02/19 11:02:37;;;;;;;6.53;2.50;;;;;;;4.97;100.00;100532.42;5004118;56;1136786;-70
2023/02/19 11:07:54;;;;;;;8.50;2.62;;;;;;;4.93;100.00;100545.68;5052204;55;1144007;-68
2023/02/19 11:13:06;;;;;;;17.47;3.40;;;;;;;4.99;100.00;100547.14;5009508;57;1136780;-68
2023/02/19 11:18:27;;;;;;;9.17;2.97;;;;;;;5.01;100.00;100554.92;4963122;57;1138875;-67
2023/02/19 11:23:47;;;;;;;16.77;3.67;;;;;;;4.98;100.00;100559.02;5031459;56;1136983;-68
2023/02/19 11:28:59;;;;;;;12.40;4.73;;;;;;;5.00;100.00;100559.31;5016227;57;1138901;-70
2023/02/19 11:34:28;;;;;;;13.40;3.50;;;;;;;4.96;100.00;100556.47;4994588;57;1138754;-70
2023/02/19 11:39:35;;;;;;;16.30;7.43;;;;;;;4.94;100.00;100568.34;4936670;57;1138922;-67
2023/02/19 11:44:54;;;;;;;10.25;4.45;;;;;;;4.98;100.00;100554.61;4983045;56;1139065;-69
2023/02/19 11:50:07;;;;;;;17.40;4.00;;;;;;;5.11;100.00;100561.34;5011137;57;1139089;-67
2023/02/19 11:55:44;;;;;;;19.40;14.97;;;;;;;5.31;100.00;100554.56;4981398;58;1139057;-67
2023/02/19 12:00:57;;;;;;;10.58;5.85;;;;;;;5.42;100.00;100564.45;4854504;57;1141345;-68
2023/02/19 12:06:16;;;;;;;12.40;2.55;;;;;;;5.27;100.00;100574.00;4964692;57;1138876;-65
2023/02/19 12:11:46;;;;;;;14.37;4.87;;;;;;;5.16;100.00;100576.37;4953899;57;1138797;-66
2023/02/19 12:17:27;;;;;;;4.65;2.55;;;;;;;5.24;100.00;100584.66;4992358;57;1138768;-67
2023/02/19 12:22:46;;;;;;;9.57;4.43;;;;;;;5.24;100.00;100584.66;4898866;58;1136885;-67
2023/02/19 12:28:02;;;;;;;32.87;11.80;;;;;;;5.37;100.00;100594.84;4939425;57;1136827;-67
2023/02/19 12:33:24;;;;;;;18.93;6.03;;;;;;;5.76;100.00;100593.58;5104989;55;1141008;-66
2023/02/19 12:38:34;;;;;;;12.33;3.50;;;;;;;5.77;100.00;100602.68;5102049;54;1138898;-65
2023/02/19 12:43:44;;;;;;;24.70;8.25;;;;;;;5.57;100.00;100627.86;4914446;57;1139105;-67
2023/02/19 12:48:59;;;;;;;38.90;15.40;;;;;;;5.38;100.00;100620.15;4946158;57;1138811;-67
2023/02/19 12:54:36;;;;;;;12.30;5.87;;;;;;;5.33;100.00;100626.59;4928804;57;1141077;-66
2023/02/19 13:00:06;;;;;;;16.35;7.45;;;;;;;5.34;100.00;100631.76;4933462;57;1138885;-69
2023/02/19 13:05:22;;;;;;;53.93;21.83;;;;;;;5.37;100.00;100643.36;4928618;57;1139118;-66
2023/02/19 13:10:56;;;;;;;69.57;28.27;;;;;;;5.33;100.00;100648.88;4943652;56;1140984;-66
2023/02/19 13:16:08;;;;;;;;;;;;;;;5.27;100.00;100646.11;4882765;58;1140978;-67
2023/02/19 13:26:36;;;;;;;33.83;13.47;;;;;;;5.58;100.00;100659.27;4934838;56;1136714;-66
2023/02/19 13:31:55;;;;;;;16.80;5.30;;;;;;;5.96;98.09;100647.97;4967847;56;1140857;-70
2023/02/19 13:37:02;;;;;;;26.40;10.80;;;;;;;5.92;97.61;100641.69;4946821;58;1136836;-67
2023/02/19 13:42:10;;;;;;;17.10;6.13;;;;;;;5.76;95.21;100641.66;4928085;58;1138895;-66
2023/02/19 13:47:57;;;;;;;34.93;15.73;;;;;;;6.03;96.78;100646.31;4962421;57;1136826;-73
2023/02/19 13:53:12;;;;;;;11.07;3.60;;;;;;;6.46;93.60;100647.31;4971343;57;1139043;-67
2023/02/19 13:58:39;;;;;;;22.03;8.87;;;;;;;6.72;90.89;100664.20;4986204;57;1136728;-66
2023/02/19 14:04:09;;;;;;;13.88;5.67;;;;;;;6.90;90.21;100671.81;4982214;57;1136838;-64
2023/02/19 14:09:42;;;;;;;10.70;4.27;;;;;;;6.58;82.12;100680.75;4844198;58;1136710;-69
2023/02/19 14:14:53;;;;;;;20.30;6.93;;;;;;;6.29;85.72;100692.94;4911012;59;1136886;-67
2023/02/19 14:20:03;;;;;;;16.17;5.33;;;;;;;6.24;78.58;100692.38;4953726;57;1136811;-66
2023/02/19 14:25:25;;;;;;;13.43;5.53;;;;;;;6.29;78.55;100702.13;4915390;57;1137249;-67
2023/02/19 14:30:34;;;;;;;3.87;1.73;;;;;;;6.03;72.78;100712.80;5070835;54;1136749;-66
2023/02/19 14:35:44;;;;;;;6.50;2.40;;;;;;;5.78;72.26;100718.53;4991462;56;1134788;-68
2023/02/19 14:40:52;;;;;;;7.67;3.50;;;;;;;5.76;75.85;100723.02;4971134;56;1146016;-67
2023/02/19 14:46:04;;;;;;;11.47;3.70;;;;;;;5.88;76.12;100726.31;4958091;57;1134678;-65
2023/02/19 14:51:16;;;;;;;5.17;1.90;;;;;;;6.07;74.58;100721.36;4953752;57;1136743;-67
2023/02/19 14:56:29;;;;;;;13.90;4.20;;;;;;;6.03;70.14;100725.08;5147678;54;1134637;-68
2023/02/19 15:01:35;;;;;;;14.75;4.05;;;;;;;5.90;75.03;100738.05;5099809;55;1136737;-64
2023/02/19 15:06:41;;;;;;;9.90;5.30;;;;;;;5.71;72.20;100738.62;5133904;54;1136890;-66
2023/02/19 15:11:46;;;;;;;13.90;4.90;;;;;;;5.50;74.93;100762.44;5154374;55;1134789;-65
2023/02/19 15:16:57;;;;;;;13.15;5.83;;;;;;;5.34;74.68;100765.50;5104147;54;1136740;-68
2023/02/19 15:22:04;;;;;;;17.80;7.43;;;;;;;5.21;73.18;100778.38;5044157;56;1136811;-67
2023/02/19 15:27:24;;;;;;;9.23;3.30;;;;;;;6.15;71.02;100791.36;5071178;55;1136798;-67
2023/02/19 15:32:31;;;;;;;15.23;6.40;;;;;;;6.02;69.72;100793.80;5111358;55;1134817;-68
2023/02/19 15:37:38;;;;;;;15.73;6.37;;;;;;;5.53;70.05;100805.56;5153359;55;1136971;-67
2023/02/19 15:42:48;;;;;;;10.70;3.62;;;;;;;5.20;72.70;100813.84;5193611;56;1136967;-68
2023/02/19 15:48:09;;;;;;;15.35;5.65;;;;;;;5.00;74.43;100812.25;5147209;55;1136756;-70
2023/02/19 15:53:19;;;;;;;19.17;8.10;;;;;;;4.86;76.21;100821.27;5132632;55;1136694;-66
2023/02/19 15:58:46;;;;;;;15.40;5.23;;;;;;;4.77;77.36;100811.21;5112792;55;1137051;-69
2023/02/19 16:03:54;;;;;;;15.20;5.25;;;;;;;4.66;78.33;100823.53;5118423;55;1136984;-66
2023/02/19 16:09:05;;;;;;;13.78;4.28;;;;;;;4.55;78.79;100824.06;5147473;55;1136945;-70
2023/02/19 16:14:32;;;;;;;16.93;5.15;;;;;;;4.41;79.41;100838.27;5024629;57;1136710;-69
2023/02/19 16:20:01;;;;;;;14.73;4.83;;;;;;;4.30;79.76;100847.52;5022195;56;1136764;-67
2023/02/19 16:25:10;;;;;;;13.27;5.57;;;;;;;4.16;80.04;100871.72;4999547;57;1136640;-68
2023/02/19 16:30:28;;;;;;;18.67;5.50;;;;;;;4.06;80.45;100866.52;4877822;57;1137196;-67
2023/02/19 16:35:39;;;;;;;10.00;3.33;;;;;;;4.00;81.35;100879.41;4987729;57;1136761;-67
2023/02/19 16:40:56;;;;;;;6.35;3.90;;;;;;;3.88;80.62;100893.89;4962969;57;1136848;-68
2023/02/19 16:46:02;;;;;;;7.17;2.60;;;;;;;3.79;80.73;100911.31;4939333;58;1134756;-68
2023/02/19 16:51:12;;;;;;;8.55;3.10;;;;;;;3.70;81.10;100931.31;4930118;57;1134739;-69
2023/02/19 16:56:21;;;;;;;4.30;2.50;;;;;;;3.62;79.75;100934.73;4940319;58;1134644;-65
2023/02/19 17:01:28;;;;;;;9.33;3.27;;;;;;;3.59;78.85;100947.08;4918072;57;1134724;-66
2023/02/19 17:06:33;;;;;;;10.93;7.73;;;;;;;3.53;76.93;100956.86;4958361;57;1134619;-69
2023/02/19 17:11:39;;;;;;;20.12;14.58;;;;;;;3.50;77.91;100961.39;4964494;57;1136906;-70
2023/02/19 17:16:45;;;;;;;8.33;3.37;;;;;;;3.45;77.64;100948.50;5003044;57;1138737;-68
2023/02/19 17:21:51;;;;;;;7.63;2.93;;;;;;;3.41;79.02;100954.77;5073638;55;1134696;-68
2023/02/19 17:26:57;;;;;;;9.93;5.33;;;;;;;3.34;79.25;100964.24;4855351;58;1134862;-66
2023/02/19 17:32:04;;;;;;;15.43;5.20;;;;;;;3.28;80.78;100957.95;5004577;56;1134661;-68
2023/02/19 17:37:09;;;;;;;21.50;9.27;;;;;;;3.19;82.17;100967.02;4890141;56;1136985;-65
2023/02/19 17:42:15;;;;;;;16.20;4.67;;;;;;;3.10;83.29;100977.82;4972855;55;1136959;-68
2023/02/19 17:47:21;;;;;;;12.30;3.67;;;;;;;3.00;84.49;100990.41;5059491;55;1136793;-71
2023/02/19 17:52:28;;;;;;;11.60;3.70;;;;;;;2.88;85.84;100998.72;5008344;55;1136781;-68
2023/02/19 17:57:34;;;;;;;8.17;2.87;;;;;;;2.76;87.06;101007.00;5134370;55;1136895;-66
2023/02/19 18:02:39;;;;;;;10.57;4.43;;;;;;;2.63;88.50;101006.61;5181709;55;1134725;-70
2023/02/19 18:07:46;;;;;;;11.37;3.43;;;;;;;2.55;89.63;101023.48;5198807;55;1234959;-68
2023/02/19 18:12:52;;;;;;;13.40;3.80;;;;;;;2.45;90.74;101025.09;5181507;55;1146176;-66
2023/02/19 18:17:58;;;;;;;13.00;4.37;;;;;;;2.32;92.00;101043.41;5181301;55;1136982;-66
2023/02/19 18:23:04;;;;;;;6.85;3.37;;;;;;;2.30;91.99;101043.92;5198869;55;1136885;-65
2023/02/19 18:28:10;;;;;;;9.10;3.63;;;;;;;2.26;92.63;101047.56;5103660;55;1134789;-65
2023/02/19 18:33:15;;;;;;;13.60;4.13;;;;;;;2.17;92.96;101060.91;5180694;55;1134645;-66
2023/02/19 18:38:21;;;;;;;11.40;3.83;;;;;;;2.10;93.72;101058.13;5171458;56;1136804;-67
2023/02/19 18:43:27;;;;;;;14.18;4.83;;;;;;;2.06;94.36;101045.62;5128968;56;1136807;-66
2023/02/19 18:48:33;;;;;;;8.37;3.47;;;;;;;2.04;94.59;101050.05;5133935;55;1137152;-65
2023/02/19 18:53:41;;;;;;;10.17;3.73;;;;;;;2.03;94.94;101052.70;5126864;56;1134819;-65
2023/02/19 18:58:46;;;;;;;10.40;3.50;;;;;;;1.99;95.45;101045.42;4913962;58;1136872;-70
2023/02/19 19:03:52;;;;;;;9.23;3.50;;;;;;;1.94;96.39;101047.81;4947600;57;1139767;-68
2023/02/19 19:08:58;;;;;;;12.53;3.83;;;;;;;1.90;96.97;101062.70;4993067;57;1134656;-70
2023/02/19 19:14:05;;;;;;;9.70;3.03;;;;;;;1.91;97.26;101065.71;5002488;58;1136989;-72
2023/02/19 19:19:12;;;;;;;8.43;2.70;;;;;;;1.89;97.93;101059.69;4993108;56;1134896;-73
2023/02/19 19:24:18;;;;;;;6.80;2.73;;;;;;;1.89;98.35;101070.58;4982666;58;1134912;-67
2023/02/19 19:29:24;;;;;;;18.47;4.77;;;;;;;1.87;98.90;101054.97;4983412;57;1134787;-71
2023/02/19 19:34:30;;;;;;;9.37;3.13;;;;;;;1.83;99.12;101054.70;4903204;58;1136724;-70
2023/02/19 19:39:36;;;;;;;9.55;3.25;;;;;;;1.80;99.29;101070.89;4975968;57;1134770;-75
2023/02/19 19:44:44;;;;;;;12.63;4.53;;;;;;;1.79;99.16;101070.48;5036876;56;1134802;-70
2023/02/19 19:49:49;;;;;;;5.83;3.00;;;;;;;1.76;99.09;101065.77;4889306;57;1136814;-73
2023/02/19 19:54:55;;;;;;;4.13;1.77;;;;;;;1.78;98.61;101068.78;4992097;58;1134643;-69
2023/02/19 20:00:01;;;;;;;7.00;1.80;;;;;;;1.76;98.08;101063.61;4984551;57;1134769;-68
2023/02/19 20:05:08;;;;;;;8.93;2.83;;;;;;;1.72;97.13;101058.08;4976839;58;1134632;-69
2023/02/19 20:10:18;;;;;;;5.78;1.60;;;;;;;1.72;97.23;101058.08;4882242;58;1134701;-71
2023/02/19 20:15:24;;;;;;;3.98;1.72;;;;;;;1.73;97.20;101058.03;4899481;58;1134672;-65
2023/02/19 20:20:30;;;;;;;5.08;1.92;;;;;;;1.73;97.31;101065.86;4937325;58;1134691;-70
2023/02/19 20:25:38;;;;;;;7.43;2.07;;;;;;;1.72;96.81;101070.67;4880788;58;1134756;-69
2023/02/19 20:30:43;;;;;;;8.23;2.80;;;;;;;1.74;96.66;101071.48;4801959;58;1134816;-70
2023/02/19 20:35:50;;;;;;;4.73;2.43;;;;;;;1.71;97.05;101075.93;4983662;57;1134637;-75
2023/02/19 20:40:57;;;;;;;10.78;2.85;;;;;;;1.68;97.78;101093.00;4962879;57;1134562;-72
2023/02/19 20:46:03;;;;;;;6.78;2.50;;;;;;;1.65;99.10;101104.37;4955929;57;1136731;-67
2023/02/19 20:51:08;;;;;;;9.47;3.10;;;;;;;1.67;99.88;101106.94;5144240;55;1134794;-72
2023/02/19 20:56:14;;;;;;;10.53;3.00;;;;;;;1.69;100.00;101109.02;5094910;55;1134967;-73
2023/02/19 21:01:26;;;;;;;7.53;3.07;;;;;;;1.70;100.00;101108.12;5180727;55;1139014;-67
2023/02/19 21:06:32;;;;;;;8.87;2.40;;;;;;;1.70;100.00;101109.42;5181759;55;1136808;-72
2023/02/19 21:11:38;;;;;;;7.73;3.77;;;;;;;1.69;100.00;101108.57;5201921;55;1137121;-67
2023/02/19 21:16:44;;;;;;;8.60;2.37;;;;;;;1.70;100.00;101112.88;5181564;55;1136654;-74
2023/02/19 21:21:49;;;;;;;9.88;2.65;;;;;;;1.70;100.00;101124.63;5176323;55;1251737;-70
2023/02/19 21:26:55;;;;;;;8.20;3.03;;;;;;;1.68;100.00;101126.42;5197245;56;1136759;-70
2023/02/19 21:32:01;;;;;;;8.50;2.52;;;;;;;1.66;100.00;101127.39;5176727;56;1136774;-68
2023/02/19 21:37:07;;;;;;;5.20;2.87;;;;;;;1.66;100.00;101131.30;5179368;55;1136911;-68
2023/02/19 21:42:13;;;;;;;9.10;1.70;;;;;;;1.65;100.00;101124.38;5201807;55;1136638;-66
2023/02/19 21:47:19;;;;;;;4.77;1.77;;;;;;;1.65;100.00;101118.72;5172665;55;1136903;-70
2023/02/19 21:52:25;;;;;;;9.80;2.47;;;;;;;1.65;100.00;101114.81;4996957;57;1136909;-69
2023/02/19 21:57:33;;;;;;;8.47;2.40;;;;;;;1.67;100.00;101116.06;4919379;58;1136988;-70
2023/02/19 22:02:39;;;;;;;7.60;2.53;;;;;;;1.68;100.00;101112.08;5030111;57;1136824;-71
2023/02/19 22:07:46;;;;;;;7.40;1.97;;;;;;;1.69;100.00;101116.39;5009518;57;1136964;-74
2023/02/19 22:12:52;;;;;;;7.20;2.40;;;;;;;1.70;100.00;101111.58;4990464;57;1136794;-74
2023/02/19 22:17:58;;;;;;;8.10;2.10;;;;;;;1.71;100.00;101106.77;5029515;57;1136895;-74
2023/02/19 22:23:03;;;;;;;11.97;2.45;;;;;;;1.72;100.00;101112.84;4980032;57;1136931;-69
2023/02/19 22:28:10;;;;;;;4.05;1.85;;;;;;;1.70;100.00;101105.06;4979537;57;1140721;-70
2023/02/19 22:33:16;;;;;;;6.23;2.00;;;;;;;1.69;99.97;101104.66;4999086;57;1136784;-73
2023/02/19 22:38:21;;;;;;;6.73;2.53;;;;;;;1.69;100.00;101100.75;4983612;57;1134575;-69
2023/02/19 22:43:27;;;;;;;5.53;1.93;;;;;;;1.64;100.00;101106.58;4984525;57;1136953;-72
2023/02/19 22:48:33;;;;;;;8.15;2.25;;;;;;;1.58;100.00;101104.60;4984015;57;1136962;-71
2023/02/19 22:53:47;;;;;;;6.73;2.87;;;;;;;1.52;100.00;101107.42;5003979;57;1136675;-74
2023/02/19 22:58:55;;;;;;;10.00;3.57;;;;;;;1.44;100.00;101106.33;4964426;57;1136922;-66
2023/02/19 23:04:01;;;;;;;10.03;2.72;;;;;;;1.44;100.00;101114.16;4984182;57;1138740;-72
2023/02/19 23:09:11;;;;;;;5.72;2.30;;;;;;;1.40;100.00;101108.17;5004055;57;1138915;-66
2023/02/19 23:14:19;;;;;;;11.07;3.10;;;;;;;1.35;100.00;101112.70;4984069;57;1136832;-75
2023/02/19 23:19:25;;;;;;;3.53;2.20;;;;;;;1.35;100.00;101114.45;4984262;57;1138975;-69
2023/02/19 23:24:32;;;;;;;9.28;2.85;;;;;;;1.31;100.00;101107.61;4998949;57;1136869;-69
2023/02/19 23:29:38;;;;;;;5.33;2.20;;;;;;;1.29;100.00;101114.17;5002908;57;1136956;-75
2023/02/19 23:34:44;;;;;;;36.57;10.13;;;;;;;1.22;100.00;101107.42;4983170;57;1136877;-70
2023/02/19 23:39:50;;;;;;;10.68;2.67;;;;;;;1.29;100.00;101110.70;4991157;57;1141205;-70
2023/02/19 23:44:55;;;;;;;10.43;2.93;;;;;;;1.34;100.00;101095.35;5173178;55;1139087;-68
2023/02/19 23:50:02;;;;;;;8.40;3.10;;;;;;;1.37;100.00;101078.33;5153258;55;1138873;-68
2023/02/19 23:55:08;;;;;;;4.08;1.72;;;;;;;1.41;100.00;101081.66;5152008;56;1136819;-71
